sensor_id;sensor_type;location;lat;lon;timestamp;P1;durP1;ratioP1;P2;durP2;ratioP2
45322;SDS011;31382;50.200;8.674;2022-12-07T00:03:06;18.73;;;10.40;;
45322;SDS011;31382;50.200;8.674;2022-12-07T00:08:07;20.08;;;10.75;;
45322;SDS011;31382;50.200;8.674;2022-12-07T00:13:08;17.65;;;9.25;;
45322;SDS011;31382;50.200;8.674;2022-12-07T00:18:10;22.65;;;9.85;;
45322;SDS011;31382;50.200;8.674;2022-12-07T00:23:11;19.27;;;9.60;;
45322;SDS011;31382;50.200;8.674;2022-12-07T00:28:13;16.33;;;8.82;;
45322;SDS011;31382;50.200;8.674;2022-12-07T00:33:14;22.67;;;10.70;;
45322;SDS011;31382;50.200;8.674;2022-12-07T00:38:15;18.85;;;8.88;;
45322;SDS011;31382;50.200;8.674;2022-12-07T00:43:17;19.55;;;10.25;;
45322;SDS011;31382;50.200;8.674;2022-12-07T00:48:18;22.90;;;11.02;;
45322;SDS011;31382;50.200;8.674;2022-12-07T00:53:20;17.30;;;9.45;;
45322;SDS011;31382;50.200;8.674;2022-12-07T00:58:21;21.20;;;10.75;;
45322;SDS011;31382;50.200;8.674;2022-12-07T01:03:23;18.48;;;9.63;;
45322;SDS011;31382;50.200;8.674;2022-12-07T01:08:25;21.05;;;9.98;;
45322;SDS011;31382;50.200;8.674;2022-12-07T01:13:27;20.08;;;10.68;;
45322;SDS011;31382;50.200;8.674;2022-12-07T01:18:30;18.58;;;9.63;;
45322;SDS011;31382;50.200;8.674;2022-12-07T01:23:33;18.80;;;8.90;;
45322;SDS011;31382;50.200;8.674;2022-12-07T01:28:37;20.33;;;8.95;;
45322;SDS011;31382;50.200;8.674;2022-12-07T01:33:38;17.80;;;8.52;;
45322;SDS011;31382;50.200;8.674;2022-12-07T01:38:40;18.52;;;9.18;;
45322;SDS011;31382;50.200;8.674;2022-12-07T01:49:10;17.00;;;8.52;;
45322;SDS011;31382;50.200;8.674;2022-12-07T01:54:17;20.95;;;8.48;;
45322;SDS011;31382;50.200;8.674;2022-12-07T01:59:19;14.85;;;6.75;;
45322;SDS011;31382;50.200;8.674;2022-12-07T02:04:23;15.80;;;6.97;;
45322;SDS011;31382;50.200;8.674;2022-12-07T02:09:25;14.88;;;6.88;;
45322;SDS011;31382;50.200;8.674;2022-12-07T02:14:26;13.73;;;6.88;;
45322;SDS011;31382;50.200;8.674;2022-12-07T02:19:42;14.52;;;6.63;;
45322;SDS011;31382;50.200;8.674;2022-12-07T02:30:22;14.73;;;7.28;;
45322;SDS011;31382;50.200;8.674;2022-12-07T02:40:43;13.38;;;5.93;;
45322;SDS011;31382;50.200;8.674;2022-12-07T02:45:46;17.77;;;6.70;;
45322;SDS011;31382;50.200;8.674;2022-12-07T02:50:50;16.25;;;6.75;;
45322;SDS011;31382;50.200;8.674;2022-12-07T02:55:53;9.88;;;4.78;;
45322;SDS011;31382;50.200;8.674;2022-12-07T03:00:58;12.93;;;6.20;;
45322;SDS011;31382;50.200;8.674;2022-12-07T03:06:20;14.43;;;6.13;;
45322;SDS011;31382;50.200;8.674;2022-12-07T03:11:41;16.15;;;6.47;;
45322;SDS011;31382;50.200;8.674;2022-12-07T03:22:07;13.73;;;6.90;;
45322;SDS011;31382;50.200;8.674;2022-12-07T03:27:16;11.38;;;5.45;;
45322;SDS011;31382;50.200;8.674;2022-12-07T03:32:27;17.83;;;6.72;;
45322;SDS011;31382;50.200;8.674;2022-12-07T03:42:57;12.95;;;6.38;;
45322;SDS011;31382;50.200;8.674;2022-12-07T03:48:10;13.85;;;6.78;;
45322;SDS011;31382;50.200;8.674;2022-12-07T03:53:33;11.93;;;6.90;;
45322;SDS011;31382;50.200;8.674;2022-12-07T03:58:39;14.60;;;6.88;;
45322;SDS011;31382;50.200;8.674;2022-12-07T04:03:42;13.35;;;5.93;;
45322;SDS011;31382;50.200;8.674;2022-12-07T04:08:43;13.15;;;6.55;;
45322;SDS011;31382;50.200;8.674;2022-12-07T04:13:44;17.63;;;6.00;;
45322;SDS011;31382;50.200;8.674;2022-12-07T04:19:04;16.05;;;6.57;;
45322;SDS011;31382;50.200;8.674;2022-12-07T04:24:06;11.52;;;5.47;;
45322;SDS011;31382;50.200;8.674;2022-12-07T04:29:07;12.15;;;5.97;;
45322;SDS011;31382;50.200;8.674;2022-12-07T04:34:10;11.25;;;6.13;;
45322;SDS011;31382;50.200;8.674;2022-12-07T04:39:23;15.32;;;5.85;;
45322;SDS011;31382;50.200;8.674;2022-12-07T04:44:27;14.18;;;6.30;;
45322;SDS011;31382;50.200;8.674;2022-12-07T04:49:28;16.83;;;6.93;;
45322;SDS011;31382;50.200;8.674;2022-12-07T04:54:30;13.70;;;6.43;;
45322;SDS011;31382;50.200;8.674;2022-12-07T04:59:31;12.85;;;6.88;;
45322;SDS011;31382;50.200;8.674;2022-12-07T05:04:32;16.00;;;6.82;;
45322;SDS011;31382;50.200;8.674;2022-12-07T05:09:34;14.23;;;6.20;;
45322;SDS011;31382;50.200;8.674;2022-12-07T05:14:35;16.13;;;7.18;;
45322;SDS011;31382;50.200;8.674;2022-12-07T05:19:37;14.73;;;6.10;;
45322;SDS011;31382;50.200;8.674;2022-12-07T05:24:38;11.02;;;6.55;;
45322;SDS011;31382;50.200;8.674;2022-12-07T05:29:39;15.75;;;7.20;;
45322;SDS011;31382;50.200;8.674;2022-12-07T05:34:41;13.32;;;5.38;;
45322;SDS011;31382;50.200;8.674;2022-12-07T05:39:42;13.63;;;5.95;;
45322;SDS011;31382;50.200;8.674;2022-12-07T05:44:45;14.05;;;5.80;;
45322;SDS011;31382;50.200;8.674;2022-12-07T05:49:47;13.43;;;6.15;;
45322;SDS011;31382;50.200;8.674;2022-12-07T05:54:48;15.35;;;7.07;;
45322;SDS011;31382;50.200;8.674;2022-12-07T05:59:50;10.45;;;5.70;;
45322;SDS011;31382;50.200;8.674;2022-12-07T06:04:51;11.98;;;5.63;;
45322;SDS011;31382;50.200;8.674;2022-12-07T06:09:52;14.57;;;6.40;;
45322;SDS011;31382;50.200;8.674;2022-12-07T06:14:54;11.90;;;5.20;;
45322;SDS011;31382;50.200;8.674;2022-12-07T06:19:55;13.75;;;6.68;;
45322;SDS011;31382;50.200;8.674;2022-12-07T06:24:56;10.60;;;5.63;;
45322;SDS011;31382;50.200;8.674;2022-12-07T06:29:58;11.45;;;5.75;;
45322;SDS011;31382;50.200;8.674;2022-12-07T06:35:00;16.73;;;7.22;;
45322;SDS011;31382;50.200;8.674;2022-12-07T06:40:02;13.20;;;5.82;;
45322;SDS011;31382;50.200;8.674;2022-12-07T06:45:04;13.90;;;6.55;;
45322;SDS011;31382;50.200;8.674;2022-12-07T06:50:06;13.52;;;5.65;;
45322;SDS011;31382;50.200;8.674;2022-12-07T06:55:08;16.48;;;7.05;;
45322;SDS011;31382;50.200;8.674;2022-12-07T07:00:10;16.00;;;7.18;;
45322;SDS011;31382;50.200;8.674;2022-12-07T07:05:20;12.45;;;6.78;;
45322;SDS011;31382;50.200;8.674;2022-12-07T07:10:24;14.88;;;7.20;;
45322;SDS011;31382;50.200;8.674;2022-12-07T07:15:25;13.23;;;7.45;;
45322;SDS011;31382;50.200;8.674;2022-12-07T07:20:27;15.80;;;6.75;;
45322;SDS011;31382;50.200;8.674;2022-12-07T07:25:28;15.93;;;7.22;;
45322;SDS011;31382;50.200;8.674;2022-12-07T07:30:30;12.63;;;6.45;;
45322;SDS011;31382;50.200;8.674;2022-12-07T07:35:33;12.00;;;6.32;;
45322;SDS011;31382;50.200;8.674;2022-12-07T07:40:35;15.32;;;7.63;;
45322;SDS011;31382;50.200;8.674;2022-12-07T07:45:36;17.60;;;8.20;;
45322;SDS011;31382;50.200;8.674;2022-12-07T07:50:38;19.50;;;7.88;;
45322;SDS011;31382;50.200;8.674;2022-12-07T07:55:39;15.65;;;7.70;;
45322;SDS011;31382;50.200;8.674;2022-12-07T08:00:41;17.55;;;7.57;;
45322;SDS011;31382;50.200;8.674;2022-12-07T08:05:42;16.42;;;7.45;;
45322;SDS011;31382;50.200;8.674;2022-12-07T08:10:43;13.75;;;6.93;;
45322;SDS011;31382;50.200;8.674;2022-12-07T08:15:46;14.63;;;7.07;;
45322;SDS011;31382;50.200;8.674;2022-12-07T08:20:48;12.20;;;7.05;;
45322;SDS011;31382;50.200;8.674;2022-12-07T08:25:50;12.15;;;5.97;;
45322;SDS011;31382;50.200;8.674;2022-12-07T08:30:51;13.13;;;5.85;;
45322;SDS011;31382;50.200;8.674;2022-12-07T08:35:53;9.85;;;5.47;;
45322;SDS011;31382;50.200;8.674;2022-12-07T08:40:55;12.82;;;5.60;;
45322;SDS011;31382;50.200;8.674;2022-12-07T08:51:09;10.77;;;5.38;;
45322;SDS011;31382;50.200;8.674;2022-12-07T08:56:11;19.67;;;6.05;;
45322;SDS011;31382;50.200;8.674;2022-12-07T09:01:13;11.77;;;5.03;;
45322;SDS011;31382;50.200;8.674;2022-12-07T09:06:15;8.68;;;4.38;;
45322;SDS011;31382;50.200;8.674;2022-12-07T09:11:16;8.63;;;4.53;;
45322;SDS011;31382;50.200;8.674;2022-12-07T09:16:18;10.90;;;4.65;;
45322;SDS011;31382;50.200;8.674;2022-12-07T09:21:19;7.53;;;4.38;;
45322;SDS011;31382;50.200;8.674;2022-12-07T09:26:21;9.35;;;4.65;;
45322;SDS011;31382;50.200;8.674;2022-12-07T09:31:22;9.52;;;3.30;;
45322;SDS011;31382;50.200;8.674;2022-12-07T09:36:26;9.70;;;3.95;;
45322;SDS011;31382;50.200;8.674;2022-12-07T09:41:29;8.68;;;4.68;;
45322;SDS011;31382;50.200;8.674;2022-12-07T09:46:36;7.20;;;3.88;;
45322;SDS011;31382;50.200;8.674;2022-12-07T09:51:39;10.00;;;4.38;;
45322;SDS011;31382;50.200;8.674;2022-12-07T09:56:42;9.63;;;3.60;;
45322;SDS011;31382;50.200;8.674;2022-12-07T10:01:46;10.48;;;4.25;;
45322;SDS011;31382;50.200;8.674;2022-12-07T10:06:49;7.15;;;1.85;;
45322;SDS011;31382;50.200;8.674;2022-12-07T10:12:02;2.88;;;2.15;;
45322;SDS011;31382;50.200;8.674;2022-12-07T10:17:30;4.05;;;1.80;;
45322;SDS011;31382;50.200;8.674;2022-12-07T10:22:53;2.85;;;0.85;;
45322;SDS011;31382;50.200;8.674;2022-12-07T10:28:09;2.78;;;0.90;;
45322;SDS011;31382;50.200;8.674;2022-12-07T10:33:35;2.95;;;0.80;;
45322;SDS011;31382;50.200;8.674;2022-12-07T10:38:40;7.22;;;1.40;;
45322;SDS011;31382;50.200;8.674;2022-12-07T10:43:53;2.88;;;1.05;;
45322;SDS011;31382;50.200;8.674;2022-12-07T10:54:26;4.25;;;0.77;;
45322;SDS011;31382;50.200;8.674;2022-12-07T10:59:39;4.72;;;0.82;;
45322;SDS011;31382;50.200;8.674;2022-12-07T11:10:02;3.10;;;1.05;;
45322;SDS011;31382;50.200;8.674;2022-12-07T11:30:44;1.10;;;0.70;;
45322;SDS011;31382;50.200;8.674;2022-12-07T11:41:04;1.60;;;1.00;;
45322;SDS011;31382;50.200;8.674;2022-12-07T11:46:15;2.17;;;0.80;;
45322;SDS011;31382;50.200;8.674;2022-12-07T11:51:19;1.42;;;0.90;;
45322;SDS011;31382;50.200;8.674;2022-12-07T11:56:24;3.80;;;1.38;;
45322;SDS011;31382;50.200;8.674;2022-12-07T12:06:34;3.42;;;0.60;;
45322;SDS011;31382;50.200;8.674;2022-12-07T12:11:40;1.77;;;0.68;;
45322;SDS011;31382;50.200;8.674;2022-12-07T12:22:10;1.70;;;0.70;;
45322;SDS011;31382;50.200;8.674;2022-12-07T12:27:33;3.05;;;0.73;;
45322;SDS011;31382;50.200;8.674;2022-12-07T12:32:38;1.48;;;0.32;;
45322;SDS011;31382;50.200;8.674;2022-12-07T12:37:42;1.40;;;0.43;;
45322;SDS011;31382;50.200;8.674;2022-12-07T12:48:03;0.70;;;0.55;;
45322;SDS011;31382;50.200;8.674;2022-12-07T13:03:37;4.00;;;0.60;;
45322;SDS011;31382;50.200;8.674;2022-12-07T13:08:40;1.77;;;0.50;;
45322;SDS011;31382;50.200;8.674;2022-12-07T13:13:42;4.95;;;0.70;;
45322;SDS011;31382;50.200;8.674;2022-12-07T13:18:44;2.75;;;0.85;;
45322;SDS011;31382;50.200;8.674;2022-12-07T13:28:48;4.10;;;0.85;;
45322;SDS011;31382;50.200;8.674;2022-12-07T13:34:05;6.10;;;0.70;;
45322;SDS011;31382;50.200;8.674;2022-12-07T13:39:58;2.50;;;0.60;;
45322;SDS011;31382;50.200;8.674;2022-12-07T13:45:16;1.52;;;0.60;;
45322;SDS011;31382;50.200;8.674;2022-12-07T13:50:54;4.88;;;0.85;;
45322;SDS011;31382;50.200;8.674;2022-12-07T13:55:57;4.38;;;0.80;;
45322;SDS011;31382;50.200;8.674;2022-12-07T14:01:00;2.78;;;0.68;;
45322;SDS011;31382;50.200;8.674;2022-12-07T14:06:03;1.42;;;0.70;;
45322;SDS011;31382;50.200;8.674;2022-12-07T14:11:18;4.68;;;1.02;;
45322;SDS011;31382;50.200;8.674;2022-12-07T14:16:23;5.57;;;1.27;;
45322;SDS011;31382;50.200;8.674;2022-12-07T14:21:31;10.07;;;3.28;;
45322;SDS011;31382;50.200;8.674;2022-12-07T14:31:35;3.90;;;1.13;;
45322;SDS011;31382;50.200;8.674;2022-12-07T14:36:37;2.08;;;1.10;;
45322;SDS011;31382;50.200;8.674;2022-12-07T14:41:38;2.28;;;0.57;;
45322;SDS011;31382;50.200;8.674;2022-12-07T14:46:52;1.38;;;0.55;;
45322;SDS011;31382;50.200;8.674;2022-12-07T14:52:15;2.15;;;0.45;;
45322;SDS011;31382;50.200;8.674;2022-12-07T14:57:39;3.05;;;0.65;;
45322;SDS011;31382;50.200;8.674;2022-12-07T15:02:41;3.40;;;0.70;;
45322;SDS011;31382;50.200;8.674;2022-12-07T15:07:42;1.23;;;0.50;;
45322;SDS011;31382;50.200;8.674;2022-12-07T15:12:44;2.45;;;0.47;;
45322;SDS011;31382;50.200;8.674;2022-12-07T15:17:46;5.25;;;0.52;;
45322;SDS011;31382;50.200;8.674;2022-12-07T15:22:47;2.45;;;0.73;;
45322;SDS011;31382;50.200;8.674;2022-12-07T15:27:48;10.32;;;1.13;;
45322;SDS011;31382;50.200;8.674;2022-12-07T15:32:53;4.85;;;0.88;;
45322;SDS011;31382;50.200;8.674;2022-12-07T15:37:55;3.20;;;1.15;;
45322;SDS011;31382;50.200;8.674;2022-12-07T15:42:57;3.85;;;0.70;;
45322;SDS011;31382;50.200;8.674;2022-12-07T15:47:58;2.03;;;0.70;;
45322;SDS011;31382;50.200;8.674;2022-12-07T15:53:19;5.03;;;0.93;;
45322;SDS011;31382;50.200;8.674;2022-12-07T15:58:21;1.10;;;0.68;;
45322;SDS011;31382;50.200;8.674;2022-12-07T16:03:22;2.60;;;0.50;;
45322;SDS011;31382;50.200;8.674;2022-12-07T16:08:23;3.28;;;1.00;;
45322;SDS011;31382;50.200;8.674;2022-12-07T16:13:25;2.20;;;0.65;;
45322;SDS011;31382;50.200;8.674;2022-12-07T16:18:26;3.53;;;1.00;;
45322;SDS011;31382;50.200;8.674;2022-12-07T16:23:28;2.55;;;0.80;;
45322;SDS011;31382;50.200;8.674;2022-12-07T16:28:29;5.65;;;1.38;;
45322;SDS011;31382;50.200;8.674;2022-12-07T16:33:31;4.43;;;1.10;;
45322;SDS011;31382;50.200;8.674;2022-12-07T16:38:32;4.65;;;1.92;;
45322;SDS011;31382;50.200;8.674;2022-12-07T16:43:35;5.43;;;1.85;;
45322;SDS011;31382;50.200;8.674;2022-12-07T16:48:37;4.75;;;1.70;;
45322;SDS011;31382;50.200;8.674;2022-12-07T16:53:40;6.18;;;2.25;;
45322;SDS011;31382;50.200;8.674;2022-12-07T16:58:43;5.72;;;1.38;;
45322;SDS011;31382;50.200;8.674;2022-12-07T17:03:45;4.35;;;1.33;;
45322;SDS011;31382;50.200;8.674;2022-12-07T17:08:48;7.30;;;1.05;;
45322;SDS011;31382;50.200;8.674;2022-12-07T17:13:50;3.15;;;1.40;;
45322;SDS011;31382;50.200;8.674;2022-12-07T17:19:11;3.30;;;1.00;;
45322;SDS011;31382;50.200;8.674;2022-12-07T17:24:15;4.00;;;0.98;;
45322;SDS011;31382;50.200;8.674;2022-12-07T17:29:17;6.07;;;1.48;;
45322;SDS011;31382;50.200;8.674;2022-12-07T17:34:19;4.38;;;1.45;;
45322;SDS011;31382;50.200;8.674;2022-12-07T17:39:21;5.03;;;1.75;;
45322;SDS011;31382;50.200;8.674;2022-12-07T17:44:22;1.42;;;0.88;;
45322;SDS011;31382;50.200;8.674;2022-12-07T17:49:25;3.83;;;0.73;;
45322;SDS011;31382;50.200;8.674;2022-12-07T17:54:28;2.60;;;0.80;;
45322;SDS011;31382;50.200;8.674;2022-12-07T17:59:30;2.92;;;0.60;;
45322;SDS011;31382;50.200;8.674;2022-12-07T18:04:31;2.17;;;0.60;;
45322;SDS011;31382;50.200;8.674;2022-12-07T18:09:33;5.95;;;0.60;;
45322;SDS011;31382;50.200;8.674;2022-12-07T18:14:35;5.72;;;0.90;;
45322;SDS011;31382;50.200;8.674;2022-12-07T18:19:37;4.43;;;0.80;;
45322;SDS011;31382;50.200;8.674;2022-12-07T18:24:38;3.75;;;1.55;;
45322;SDS011;31382;50.200;8.674;2022-12-07T18:29:39;6.72;;;1.00;;
45322;SDS011;31382;50.200;8.674;2022-12-07T18:34:41;4.70;;;1.52;;
45322;SDS011;31382;50.200;8.674;2022-12-07T18:39:42;6.05;;;2.25;;
45322;SDS011;31382;50.200;8.674;2022-12-07T18:44:44;2.30;;;1.05;;
45322;SDS011;31382;50.200;8.674;2022-12-07T18:49:45;5.05;;;2.38;;
45322;SDS011;31382;50.200;8.674;2022-12-07T18:54:46;7.97;;;3.08;;
45322;SDS011;31382;50.200;8.674;2022-12-07T18:59:48;7.25;;;2.15;;
45322;SDS011;31382;50.200;8.674;2022-12-07T19:04:50;5.20;;;1.60;;
45322;SDS011;31382;50.200;8.674;2022-12-07T19:09:51;5.10;;;1.73;;
45322;SDS011;31382;50.200;8.674;2022-12-07T19:14:53;5.07;;;2.60;;
45322;SDS011;31382;50.200;8.674;2022-12-07T19:19:55;6.57;;;2.47;;
45322;SDS011;31382;50.200;8.674;2022-12-07T19:24:56;8.15;;;2.80;;
45322;SDS011;31382;50.200;8.674;2022-12-07T19:29:58;4.13;;;1.63;;
45322;SDS011;31382;50.200;8.674;2022-12-07T19:35:00;9.45;;;2.53;;
45322;SDS011;31382;50.200;8.674;2022-12-07T19:40:02;2.83;;;1.50;;
45322;SDS011;31382;50.200;8.674;2022-12-07T19:45:04;7.85;;;2.63;;
45322;SDS011;31382;50.200;8.674;2022-12-07T19:50:06;4.93;;;1.60;;
45322;SDS011;31382;50.200;8.674;2022-12-07T19:55:08;5.88;;;1.58;;
45322;SDS011;31382;50.200;8.674;2022-12-07T20:00:09;5.82;;;1.88;;
45322;SDS011;31382;50.200;8.674;2022-12-07T20:05:11;8.48;;;1.98;;
45322;SDS011;31382;50.200;8.674;2022-12-07T20:10:13;5.05;;;1.73;;
45322;SDS011;31382;50.200;8.674;2022-12-07T20:15:14;3.92;;;1.00;;
45322;SDS011;31382;50.200;8.674;2022-12-07T20:20:16;5.50;;;1.92;;
45322;SDS011;31382;50.200;8.674;2022-12-07T20:25:17;5.65;;;1.85;;
45322;SDS011;31382;50.200;8.674;2022-12-07T20:30:20;5.85;;;1.73;;
45322;SDS011;31382;50.200;8.674;2022-12-07T20:35:21;5.60;;;2.38;;
45322;SDS011;31382;50.200;8.674;2022-12-07T20:40:22;8.27;;;3.03;;
45322;SDS011;31382;50.200;8.674;2022-12-07T20:45:24;8.93;;;2.97;;
45322;SDS011;31382;50.200;8.674;2022-12-07T20:50:25;10.00;;;3.40;;
45322;SDS011;31382;50.200;8.674;2022-12-07T20:55:27;8.30;;;2.88;;
45322;SDS011;31382;50.200;8.674;2022-12-07T21:00:28;8.98;;;2.72;;
45322;SDS011;31382;50.200;8.674;2022-12-07T21:05:29;5.03;;;2.50;;
45322;SDS011;31382;50.200;8.674;2022-12-07T21:10:31;7.38;;;2.47;;
45322;SDS011;31382;50.200;8.674;2022-12-07T21:15:33;11.07;;;2.97;;
45322;SDS011;31382;50.200;8.674;2022-12-07T21:20:34;9.82;;;3.60;;
45322;SDS011;31382;50.200;8.674;2022-12-07T21:25:36;9.95;;;4.07;;
45322;SDS011;31382;50.200;8.674;2022-12-07T21:30:37;7.85;;;4.13;;
45322;SDS011;31382;50.200;8.674;2022-12-07T21:35:59;8.68;;;3.83;;
45322;SDS011;31382;50.200;8.674;2022-12-07T21:41:15;9.65;;;4.15;;
45322;SDS011;31382;50.200;8.674;2022-12-07T21:46:19;6.85;;;3.97;;
45322;SDS011;31382;50.200;8.674;2022-12-07T21:51:22;8.73;;;4.38;;
45322;SDS011;31382;50.200;8.674;2022-12-07T21:56:26;10.10;;;4.85;;
45322;SDS011;31382;50.200;8.674;2022-12-07T22:01:30;9.80;;;4.13;;
45322;SDS011;31382;50.200;8.674;2022-12-07T22:06:36;10.07;;;4.07;;
45322;SDS011;31382;50.200;8.674;2022-12-07T22:11:37;11.38;;;4.45;;
45322;SDS011;31382;50.200;8.674;2022-12-07T22:16:39;11.05;;;4.70;;
45322;SDS011;31382;50.200;8.674;2022-12-07T22:21:40;11.95;;;4.95;;
45322;SDS011;31382;50.200;8.674;2022-12-07T22:26:42;10.10;;;4.78;;
45322;SDS011;31382;50.200;8.674;2022-12-07T22:31:44;8.50;;;4.47;;
45322;SDS011;31382;50.200;8.674;2022-12-07T22:36:53;11.38;;;4.68;;
45322;SDS011;31382;50.200;8.674;2022-12-07T22:41:54;19.55;;;5.50;;
45322;SDS011;31382;50.200;8.674;2022-12-07T22:46:56;13.00;;;4.70;;
45322;SDS011;31382;50.200;8.674;2022-12-07T22:51:57;14.05;;;4.40;;
45322;SDS011;31382;50.200;8.674;2022-12-07T22:56:59;9.23;;;4.40;;
45322;SDS011;31382;50.200;8.674;2022-12-07T23:02:00;8.32;;;4.65;;
45322;SDS011;31382;50.200;8.674;2022-12-07T23:07:01;10.95;;;4.60;;
45322;SDS011;31382;50.200;8.674;2022-12-07T23:12:03;8.57;;;4.55;;
45322;SDS011;31382;50.200;8.674;2022-12-07T23:17:23;8.60;;;4.00;;
45322;SDS011;31382;50.200;8.674;2022-12-07T23:22:24;9.73;;;4.80;;
45322;SDS011;31382;50.200;8.674;2022-12-07T23:27:26;10.32;;;5.40;;
45322;SDS011;31382;50.200;8.674;2022-12-07T23:32:27;8.77;;;4.75;;
45322;SDS011;31382;50.200;8.674;2022-12-07T23:37:29;7.30;;;4.57;;
45322;SDS011;31382;50.200;8.674;2022-12-07T23:42:31;12.07;;;4.97;;
45322;SDS011;31382;50.200;8.674;2022-12-07T23:47:33;12.30;;;5.57;;
45322;SDS011;31382;50.200;8.674;2022-12-07T23:52:34;10.77;;;5.38;;
45322;SDS011;31382;50.200;8.674;2022-12-07T23:57:36;16.08;;;6.53;;
